sensor_id;sensor_type;location;lat;lon;timestamp;P1;durP1;ratioP1;P2;durP2;ratioP2
45198;SDS011;30941;46.422;18.772;2023-01-05T00:02:04;20.77;;;12.00;;
45198;SDS011;30941;46.422;18.772;2023-01-05T00:04:29;20.02;;;12.25;;
45198;SDS011;30941;46.422;18.772;2023-01-05T00:06:54;19.73;;;12.60;;
45198;SDS011;30941;46.422;18.772;2023-01-05T00:09:20;20.92;;;13.20;;
45198;SDS011;30941;46.422;18.772;2023-01-05T00:11:45;21.23;;;12.65;;
45198;SDS011;30941;46.422;18.772;2023-01-05T00:17:14;22.95;;;13.38;;
45198;SDS011;30941;46.422;18.772;2023-01-05T00:20:03;23.17;;;14.48;;
45198;SDS011;30941;46.422;18.772;2023-01-05T00:22:49;23.83;;;13.63;;
45198;SDS011;30941;46.422;18.772;2023-01-05T00:25:19;24.55;;;15.60;;
45198;SDS011;30941;46.422;18.772;2023-01-05T00:27:49;26.33;;;15.57;;
45198;SDS011;30941;46.422;18.772;2023-01-05T00:30:19;24.17;;;14.32;;
45198;SDS011;30941;46.422;18.772;2023-01-05T00:32:46;26.15;;;17.15;;
45198;SDS011;30941;46.422;18.772;2023-01-05T00:35:12;25.00;;;15.88;;
45198;SDS011;30941;46.422;18.772;2023-01-05T00:37:39;27.27;;;16.75;;
45198;SDS011;30941;46.422;18.772;2023-01-05T00:40:05;31.38;;;17.05;;
45198;SDS011;30941;46.422;18.772;2023-01-05T00:42:32;25.13;;;16.40;;
45198;SDS011;30941;46.422;18.772;2023-01-05T00:44:57;28.98;;;16.73;;
45198;SDS011;30941;46.422;18.772;2023-01-05T00:47:23;26.33;;;15.93;;
45198;SDS011;30941;46.422;18.772;2023-01-05T00:49:48;21.48;;;15.30;;
45198;SDS011;30941;46.422;18.772;2023-01-05T00:52:14;26.30;;;16.92;;
45198;SDS011;30941;46.422;18.772;2023-01-05T00:54:39;28.02;;;16.92;;
45198;SDS011;30941;46.422;18.772;2023-01-05T00:57:05;27.55;;;17.25;;
45198;SDS011;30941;46.422;18.772;2023-01-05T00:59:31;27.67;;;16.65;;
45198;SDS011;30941;46.422;18.772;2023-01-05T01:01:57;25.30;;;16.33;;
45198;SDS011;30941;46.422;18.772;2023-01-05T01:04:22;27.80;;;17.08;;
45198;SDS011;30941;46.422;18.772;2023-01-05T01:06:48;29.00;;;17.33;;
45198;SDS011;30941;46.422;18.772;2023-01-05T01:09:14;26.77;;;17.38;;
45198;SDS011;30941;46.422;18.772;2023-01-05T01:11:39;29.73;;;18.05;;
45198;SDS011;30941;46.422;18.772;2023-01-05T01:14:05;33.67;;;17.67;;
45198;SDS011;30941;46.422;18.772;2023-01-05T01:16:31;29.05;;;17.52;;
45198;SDS011;30941;46.422;18.772;2023-01-05T01:18:57;29.95;;;18.48;;
45198;SDS011;30941;46.422;18.772;2023-01-05T01:21:23;30.38;;;17.75;;
45198;SDS011;30941;46.422;18.772;2023-01-05T01:23:48;30.73;;;18.88;;
45198;SDS011;30941;46.422;18.772;2023-01-05T01:26:13;29.33;;;17.85;;
45198;SDS011;30941;46.422;18.772;2023-01-05T01:28:39;30.20;;;18.20;;
45198;SDS011;30941;46.422;18.772;2023-01-05T01:31:05;29.73;;;17.92;;
45198;SDS011;30941;46.422;18.772;2023-01-05T01:33:30;28.67;;;18.33;;
45198;SDS011;30941;46.422;18.772;2023-01-05T01:35:56;27.38;;;18.20;;
45198;SDS011;30941;46.422;18.772;2023-01-05T01:38:22;28.83;;;18.75;;
45198;SDS011;30941;46.422;18.772;2023-01-05T01:40:48;29.73;;;18.45;;
45198;SDS011;30941;46.422;18.772;2023-01-05T01:44:00;28.85;;;16.90;;
45198;SDS011;30941;46.422;18.772;2023-01-05T01:46:16;29.30;;;17.27;;
45198;SDS011;30941;46.422;18.772;2023-01-05T01:48:50;27.40;;;17.85;;
45198;SDS011;30941;46.422;18.772;2023-01-05T01:51:50;28.92;;;18.10;;
45198;SDS011;30941;46.422;18.772;2023-01-05T01:54:10;30.23;;;17.58;;
45198;SDS011;30941;46.422;18.772;2023-01-05T01:56:40;27.90;;;17.85;;
45198;SDS011;30941;46.422;18.772;2023-01-05T01:59:11;30.33;;;17.40;;
45198;SDS011;30941;46.422;18.772;2023-01-05T02:01:37;25.60;;;16.75;;
45198;SDS011;30941;46.422;18.772;2023-01-05T02:04:03;28.50;;;17.42;;
45198;SDS011;30941;46.422;18.772;2023-01-05T02:06:29;28.67;;;18.13;;
45198;SDS011;30941;46.422;18.772;2023-01-05T02:08:55;31.02;;;19.02;;
45198;SDS011;30941;46.422;18.772;2023-01-05T02:14:04;30.23;;;18.88;;
45198;SDS011;30941;46.422;18.772;2023-01-05T02:17:30;30.00;;;17.95;;
45198;SDS011;30941;46.422;18.772;2023-01-05T02:34:35;28.55;;;17.38;;
45198;SDS011;30941;46.422;18.772;2023-01-05T02:37:08;27.35;;;16.52;;
45198;SDS011;30941;46.422;18.772;2023-01-05T02:42:27;30.20;;;18.40;;
45198;SDS011;30941;46.422;18.772;2023-01-05T02:44:59;32.40;;;19.58;;
45198;SDS011;30941;46.422;18.772;2023-01-05T02:49:54;31.52;;;19.42;;
45198;SDS011;30941;46.422;18.772;2023-01-05T02:52:29;31.35;;;19.80;;
45198;SDS011;30941;46.422;18.772;2023-01-05T02:55:07;31.90;;;19.35;;
45198;SDS011;30941;46.422;18.772;2023-01-05T02:57:35;32.35;;;20.60;;
45198;SDS011;30941;46.422;18.772;2023-01-05T03:00:15;34.97;;;21.92;;
45198;SDS011;30941;46.422;18.772;2023-01-05T03:02:49;30.05;;;20.05;;
45198;SDS011;30941;46.422;18.772;2023-01-05T03:05:22;35.28;;;20.58;;
45198;SDS011;30941;46.422;18.772;2023-01-05T03:07:51;33.35;;;20.60;;
45198;SDS011;30941;46.422;18.772;2023-01-05T03:10:17;32.90;;;19.45;;
45198;SDS011;30941;46.422;18.772;2023-01-05T03:13:02;36.85;;;21.20;;
45198;SDS011;30941;46.422;18.772;2023-01-05T03:15:48;32.50;;;21.40;;
45198;SDS011;30941;46.422;18.772;2023-01-05T03:18:16;41.42;;;24.05;;
45198;SDS011;30941;46.422;18.772;2023-01-05T03:20:45;36.10;;;21.50;;
45198;SDS011;30941;46.422;18.772;2023-01-05T03:23:12;34.05;;;20.65;;
45198;SDS011;30941;46.422;18.772;2023-01-05T03:25:58;33.42;;;21.15;;
45198;SDS011;30941;46.422;18.772;2023-01-05T03:28:50;35.60;;;21.45;;
45198;SDS011;30941;46.422;18.772;2023-01-05T03:35:04;34.78;;;21.77;;
45198;SDS011;30941;46.422;18.772;2023-01-05T03:40:38;42.72;;;25.15;;
45198;SDS011;30941;46.422;18.772;2023-01-05T03:43:04;40.45;;;23.83;;
45198;SDS011;30941;46.422;18.772;2023-01-05T03:45:35;37.05;;;22.58;;
45198;SDS011;30941;46.422;18.772;2023-01-05T03:48:10;41.70;;;24.88;;
45198;SDS011;30941;46.422;18.772;2023-01-05T03:50:36;42.28;;;26.10;;
45198;SDS011;30941;46.422;18.772;2023-01-05T03:53:02;41.90;;;25.95;;
45198;SDS011;30941;46.422;18.772;2023-01-05T03:55:28;44.58;;;27.67;;
45198;SDS011;30941;46.422;18.772;2023-01-05T03:57:53;45.22;;;26.52;;
45198;SDS011;30941;46.422;18.772;2023-01-05T04:00:19;42.78;;;26.73;;
45198;SDS011;30941;46.422;18.772;2023-01-05T04:02:44;40.13;;;25.60;;
45198;SDS011;30941;46.422;18.772;2023-01-05T04:05:10;44.15;;;26.73;;
45198;SDS011;30941;46.422;18.772;2023-01-05T04:07:35;40.72;;;24.77;;
45198;SDS011;30941;46.422;18.772;2023-01-05T04:10:01;40.65;;;25.38;;
45198;SDS011;30941;46.422;18.772;2023-01-05T04:12:26;40.35;;;24.42;;
45198;SDS011;30941;46.422;18.772;2023-01-05T04:14:52;37.97;;;24.60;;
45198;SDS011;30941;46.422;18.772;2023-01-05T04:17:17;42.28;;;25.55;;
45198;SDS011;30941;46.422;18.772;2023-01-05T04:19:42;37.60;;;23.77;;
45198;SDS011;30941;46.422;18.772;2023-01-05T04:22:08;42.25;;;26.08;;
45198;SDS011;30941;46.422;18.772;2023-01-05T04:24:33;41.35;;;25.92;;
45198;SDS011;30941;46.422;18.772;2023-01-05T04:26:58;41.15;;;25.20;;
45198;SDS011;30941;46.422;18.772;2023-01-05T04:29:24;39.60;;;24.45;;
45198;SDS011;30941;46.422;18.772;2023-01-05T04:31:49;42.53;;;25.45;;
45198;SDS011;30941;46.422;18.772;2023-01-05T04:34:14;41.25;;;24.98;;
45198;SDS011;30941;46.422;18.772;2023-01-05T04:36:40;39.75;;;25.33;;
45198;SDS011;30941;46.422;18.772;2023-01-05T04:39:06;42.15;;;26.13;;
45198;SDS011;30941;46.422;18.772;2023-01-05T04:41:31;41.33;;;26.40;;
45198;SDS011;30941;46.422;18.772;2023-01-05T04:43:56;39.13;;;24.67;;
45198;SDS011;30941;46.422;18.772;2023-01-05T04:46:22;42.05;;;24.15;;
45198;SDS011;30941;46.422;18.772;2023-01-05T04:48:47;46.08;;;26.42;;
45198;SDS011;30941;46.422;18.772;2023-01-05T04:51:13;41.00;;;24.60;;
45198;SDS011;30941;46.422;18.772;2023-01-05T04:53:38;40.65;;;24.95;;
45198;SDS011;30941;46.422;18.772;2023-01-05T04:56:03;41.50;;;24.40;;
45198;SDS011;30941;46.422;18.772;2023-01-05T04:58:29;37.95;;;23.35;;
45198;SDS011;30941;46.422;18.772;2023-01-05T05:00:54;35.95;;;22.70;;
45198;SDS011;30941;46.422;18.772;2023-01-05T05:03:20;40.35;;;25.75;;
45198;SDS011;30941;46.422;18.772;2023-01-05T05:05:45;37.38;;;24.05;;
45198;SDS011;30941;46.422;18.772;2023-01-05T05:08:11;36.72;;;24.52;;
45198;SDS011;30941;46.422;18.772;2023-01-05T05:10:36;38.22;;;24.20;;
45198;SDS011;30941;46.422;18.772;2023-01-05T05:13:02;37.88;;;24.45;;
45198;SDS011;30941;46.422;18.772;2023-01-05T05:15:27;39.25;;;24.15;;
45198;SDS011;30941;46.422;18.772;2023-01-05T05:17:53;40.55;;;24.70;;
45198;SDS011;30941;46.422;18.772;2023-01-05T05:20:18;40.90;;;24.98;;
45198;SDS011;30941;46.422;18.772;2023-01-05T05:22:43;40.25;;;24.20;;
45198;SDS011;30941;46.422;18.772;2023-01-05T05:25:10;37.50;;;22.92;;
45198;SDS011;30941;46.422;18.772;2023-01-05T05:27:35;40.00;;;23.90;;
45198;SDS011;30941;46.422;18.772;2023-01-05T05:30:01;43.88;;;24.65;;
45198;SDS011;30941;46.422;18.772;2023-01-05T05:32:26;39.58;;;23.20;;
45198;SDS011;30941;46.422;18.772;2023-01-05T05:34:51;38.45;;;24.17;;
45198;SDS011;30941;46.422;18.772;2023-01-05T05:37:17;39.35;;;22.92;;
45198;SDS011;30941;46.422;18.772;2023-01-05T05:39:42;37.63;;;22.73;;
45198;SDS011;30941;46.422;18.772;2023-01-05T05:42:07;36.05;;;21.75;;
45198;SDS011;30941;46.422;18.772;2023-01-05T05:44:33;33.55;;;21.95;;
45198;SDS011;30941;46.422;18.772;2023-01-05T05:46:58;37.65;;;22.83;;
45198;SDS011;30941;46.422;18.772;2023-01-05T05:49:24;37.42;;;24.25;;
45198;SDS011;30941;46.422;18.772;2023-01-05T05:51:49;43.13;;;25.05;;
45198;SDS011;30941;46.422;18.772;2023-01-05T05:54:14;43.13;;;25.58;;
45198;SDS011;30941;46.422;18.772;2023-01-05T05:56:40;48.55;;;27.27;;
45198;SDS011;30941;46.422;18.772;2023-01-05T05:59:05;44.75;;;26.45;;
45198;SDS011;30941;46.422;18.772;2023-01-05T06:01:31;48.50;;;26.98;;
45198;SDS011;30941;46.422;18.772;2023-01-05T06:03:56;42.72;;;26.90;;
45198;SDS011;30941;46.422;18.772;2023-01-05T06:06:21;44.40;;;25.17;;
45198;SDS011;30941;46.422;18.772;2023-01-05T06:08:47;46.25;;;28.15;;
45198;SDS011;30941;46.422;18.772;2023-01-05T06:11:12;40.13;;;24.70;;
45198;SDS011;30941;46.422;18.772;2023-01-05T06:13:38;41.75;;;25.83;;
45198;SDS011;30941;46.422;18.772;2023-01-05T06:16:03;66.72;;;36.05;;
45198;SDS011;30941;46.422;18.772;2023-01-05T06:18:28;73.28;;;37.42;;
45198;SDS011;30941;46.422;18.772;2023-01-05T06:20:54;60.88;;;33.72;;
45198;SDS011;30941;46.422;18.772;2023-01-05T06:23:19;57.08;;;33.17;;
45198;SDS011;30941;46.422;18.772;2023-01-05T06:25:45;58.22;;;33.47;;
45198;SDS011;30941;46.422;18.772;2023-01-05T06:28:10;55.17;;;31.77;;
45198;SDS011;30941;46.422;18.772;2023-01-05T06:30:35;53.35;;;30.45;;
45198;SDS011;30941;46.422;18.772;2023-01-05T06:33:01;51.47;;;30.45;;
45198;SDS011;30941;46.422;18.772;2023-01-05T06:35:26;49.95;;;29.88;;
45198;SDS011;30941;46.422;18.772;2023-01-05T06:37:52;42.47;;;26.17;;
45198;SDS011;30941;46.422;18.772;2023-01-05T06:40:17;43.45;;;26.27;;
45198;SDS011;30941;46.422;18.772;2023-01-05T06:42:43;43.00;;;25.75;;
45198;SDS011;30941;46.422;18.772;2023-01-05T06:45:08;46.45;;;27.67;;
45198;SDS011;30941;46.422;18.772;2023-01-05T06:47:36;47.78;;;27.13;;
45198;SDS011;30941;46.422;18.772;2023-01-05T06:50:02;49.10;;;27.80;;
45198;SDS011;30941;46.422;18.772;2023-01-05T06:52:27;49.35;;;26.55;;
45198;SDS011;30941;46.422;18.772;2023-01-05T06:54:53;48.70;;;27.02;;
45198;SDS011;30941;46.422;18.772;2023-01-05T06:57:18;41.60;;;26.30;;
45198;SDS011;30941;46.422;18.772;2023-01-05T06:59:43;44.55;;;25.70;;
45198;SDS011;30941;46.422;18.772;2023-01-05T07:02:12;38.22;;;23.98;;
45198;SDS011;30941;46.422;18.772;2023-01-05T07:04:38;38.78;;;23.90;;
45198;SDS011;30941;46.422;18.772;2023-01-05T07:07:04;38.05;;;23.38;;
45198;SDS011;30941;46.422;18.772;2023-01-05T07:09:29;46.40;;;27.10;;
45198;SDS011;30941;46.422;18.772;2023-01-05T07:11:54;47.00;;;26.90;;
45198;SDS011;30941;46.422;18.772;2023-01-05T07:14:20;39.88;;;25.20;;
45198;SDS011;30941;46.422;18.772;2023-01-05T07:16:45;36.05;;;22.98;;
45198;SDS011;30941;46.422;18.772;2023-01-05T07:19:11;34.42;;;21.77;;
45198;SDS011;30941;46.422;18.772;2023-01-05T07:21:36;32.55;;;21.38;;
45198;SDS011;30941;46.422;18.772;2023-01-05T07:24:02;31.13;;;19.20;;
45198;SDS011;30941;46.422;18.772;2023-01-05T07:26:27;30.90;;;19.70;;
45198;SDS011;30941;46.422;18.772;2023-01-05T07:28:53;32.15;;;18.88;;
45198;SDS011;30941;46.422;18.772;2023-01-05T07:31:18;27.88;;;17.58;;
45198;SDS011;30941;46.422;18.772;2023-01-05T07:33:43;27.58;;;15.93;;
45198;SDS011;30941;46.422;18.772;2023-01-05T07:36:09;28.80;;;17.40;;
45198;SDS011;30941;46.422;18.772;2023-01-05T07:38:34;29.42;;;17.90;;
45198;SDS011;30941;46.422;18.772;2023-01-05T07:41:00;29.27;;;18.52;;
45198;SDS011;30941;46.422;18.772;2023-01-05T07:43:26;27.45;;;17.90;;
45198;SDS011;30941;46.422;18.772;2023-01-05T07:45:56;30.75;;;18.30;;
45198;SDS011;30941;46.422;18.772;2023-01-05T07:48:22;24.85;;;16.80;;
45198;SDS011;30941;46.422;18.772;2023-01-05T07:50:48;26.38;;;17.05;;
45198;SDS011;30941;46.422;18.772;2023-01-05T07:53:13;23.67;;;15.57;;
45198;SDS011;30941;46.422;18.772;2023-01-05T07:55:38;27.27;;;17.60;;
45198;SDS011;30941;46.422;18.772;2023-01-05T07:58:04;25.25;;;16.23;;
45198;SDS011;30941;46.422;18.772;2023-01-05T08:00:29;24.77;;;16.52;;
45198;SDS011;30941;46.422;18.772;2023-01-05T08:02:55;26.05;;;15.10;;
45198;SDS011;30941;46.422;18.772;2023-01-05T08:05:20;28.35;;;15.35;;
45198;SDS011;30941;46.422;18.772;2023-01-05T08:07:45;23.55;;;14.07;;
45198;SDS011;30941;46.422;18.772;2023-01-05T08:10:11;23.27;;;15.45;;
45198;SDS011;30941;46.422;18.772;2023-01-05T08:13:04;25.25;;;14.55;;
45198;SDS011;30941;46.422;18.772;2023-01-05T08:15:49;22.83;;;13.77;;
45198;SDS011;30941;46.422;18.772;2023-01-05T08:18:17;18.58;;;12.65;;
45198;SDS011;30941;46.422;18.772;2023-01-05T08:20:48;18.15;;;12.23;;
45198;SDS011;30941;46.422;18.772;2023-01-05T08:23:14;21.05;;;12.73;;
45198;SDS011;30941;46.422;18.772;2023-01-05T08:25:40;18.40;;;12.60;;
45198;SDS011;30941;46.422;18.772;2023-01-05T08:28:05;17.77;;;12.20;;
45198;SDS011;30941;46.422;18.772;2023-01-05T08:30:30;18.48;;;13.05;;
45198;SDS011;30941;46.422;18.772;2023-01-05T08:32:56;19.60;;;12.15;;
45198;SDS011;30941;46.422;18.772;2023-01-05T08:35:21;19.13;;;12.43;;
45198;SDS011;30941;46.422;18.772;2023-01-05T08:37:47;20.85;;;13.00;;
45198;SDS011;30941;46.422;18.772;2023-01-05T08:40:12;19.55;;;12.70;;
45198;SDS011;30941;46.422;18.772;2023-01-05T08:42:37;25.23;;;14.65;;
45198;SDS011;30941;46.422;18.772;2023-01-05T08:45:04;22.15;;;14.65;;
45198;SDS011;30941;46.422;18.772;2023-01-05T08:47:30;22.42;;;14.23;;
45198;SDS011;30941;46.422;18.772;2023-01-05T08:49:56;22.75;;;13.55;;
45198;SDS011;30941;46.422;18.772;2023-01-05T08:52:21;23.08;;;15.95;;
45198;SDS011;30941;46.422;18.772;2023-01-05T08:54:47;21.55;;;13.93;;
45198;SDS011;30941;46.422;18.772;2023-01-05T08:57:13;22.75;;;14.32;;
45198;SDS011;30941;46.422;18.772;2023-01-05T08:59:39;21.13;;;13.73;;
45198;SDS011;30941;46.422;18.772;2023-01-05T09:02:05;17.48;;;12.35;;
45198;SDS011;30941;46.422;18.772;2023-01-05T09:04:34;18.17;;;12.00;;
45198;SDS011;30941;46.422;18.772;2023-01-05T09:06:59;15.70;;;10.20;;
45198;SDS011;30941;46.422;18.772;2023-01-05T09:09:24;15.45;;;9.63;;
45198;SDS011;30941;46.422;18.772;2023-01-05T09:11:50;13.10;;;9.35;;
45198;SDS011;30941;46.422;18.772;2023-01-05T09:14:16;13.25;;;8.43;;
45198;SDS011;30941;46.422;18.772;2023-01-05T09:16:42;13.25;;;8.00;;
45198;SDS011;30941;46.422;18.772;2023-01-05T09:19:08;13.38;;;8.38;;
45198;SDS011;30941;46.422;18.772;2023-01-05T09:21:33;11.02;;;8.10;;
45198;SDS011;30941;46.422;18.772;2023-01-05T09:23:59;11.65;;;7.82;;
45198;SDS011;30941;46.422;18.772;2023-01-05T09:26:24;13.13;;;8.30;;
45198;SDS011;30941;46.422;18.772;2023-01-05T09:28:49;11.43;;;6.47;;
45198;SDS011;30941;46.422;18.772;2023-01-05T09:31:19;13.45;;;8.13;;
45198;SDS011;30941;46.422;18.772;2023-01-05T09:33:45;13.57;;;8.88;;
45198;SDS011;30941;46.422;18.772;2023-01-05T09:36:11;12.30;;;7.63;;
45198;SDS011;30941;46.422;18.772;2023-01-05T09:38:38;13.57;;;8.07;;
45198;SDS011;30941;46.422;18.772;2023-01-05T09:41:06;13.95;;;9.50;;
45198;SDS011;30941;46.422;18.772;2023-01-05T09:43:37;16.95;;;9.73;;
45198;SDS011;30941;46.422;18.772;2023-01-05T09:46:07;14.60;;;8.93;;
45198;SDS011;30941;46.422;18.772;2023-01-05T09:48:38;20.23;;;11.20;;
45198;SDS011;30941;46.422;18.772;2023-01-05T09:51:05;16.65;;;10.18;;
45198;SDS011;30941;46.422;18.772;2023-01-05T09:53:32;15.38;;;9.77;;
45198;SDS011;30941;46.422;18.772;2023-01-05T09:55:58;12.43;;;8.27;;
45198;SDS011;30941;46.422;18.772;2023-01-05T09:58:25;18.10;;;9.50;;
45198;SDS011;30941;46.422;18.772;2023-01-05T10:01:26;15.00;;;8.27;;
45198;SDS011;30941;46.422;18.772;2023-01-05T10:03:54;11.02;;;7.72;;
45198;SDS011;30941;46.422;18.772;2023-01-05T10:06:20;13.07;;;8.30;;
45198;SDS011;30941;46.422;18.772;2023-01-05T10:08:51;11.48;;;7.47;;
45198;SDS011;30941;46.422;18.772;2023-01-05T10:11:18;11.00;;;7.63;;
45198;SDS011;30941;46.422;18.772;2023-01-05T10:14:07;12.75;;;7.32;;
45198;SDS011;30941;46.422;18.772;2023-01-05T10:16:42;15.63;;;9.25;;
45198;SDS011;30941;46.422;18.772;2023-01-05T10:19:18;16.88;;;9.82;;
45198;SDS011;30941;46.422;18.772;2023-01-05T10:24:21;21.15;;;11.18;;
45198;SDS011;30941;46.422;18.772;2023-01-05T10:27:05;20.73;;;11.05;;
45198;SDS011;30941;46.422;18.772;2023-01-05T10:32:11;15.43;;;8.77;;
45198;SDS011;30941;46.422;18.772;2023-01-05T10:40:23;15.00;;;9.25;;
45198;SDS011;30941;46.422;18.772;2023-01-05T10:45:33;18.33;;;9.55;;
45198;SDS011;30941;46.422;18.772;2023-01-05T10:47:59;16.42;;;8.85;;
45198;SDS011;30941;46.422;18.772;2023-01-05T10:50:35;22.80;;;13.27;;
45198;SDS011;30941;46.422;18.772;2023-01-05T10:55:43;13.82;;;8.85;;
45198;SDS011;30941;46.422;18.772;2023-01-05T10:58:19;9.70;;;7.05;;
45198;SDS011;30941;46.422;18.772;2023-01-05T11:00:49;10.77;;;7.30;;
45198;SDS011;30941;46.422;18.772;2023-01-05T11:03:15;12.02;;;7.82;;
45198;SDS011;30941;46.422;18.772;2023-01-05T11:05:43;10.77;;;7.05;;
45198;SDS011;30941;46.422;18.772;2023-01-05T11:08:14;12.30;;;7.88;;
45198;SDS011;30941;46.422;18.772;2023-01-05T11:10:52;12.48;;;7.57;;
45198;SDS011;30941;46.422;18.772;2023-01-05T11:15:53;23.85;;;16.10;;
45198;SDS011;30941;46.422;18.772;2023-01-05T11:21:16;11.23;;;7.97;;
45198;SDS011;30941;46.422;18.772;2023-01-05T11:23:46;11.90;;;7.70;;
45198;SDS011;30941;46.422;18.772;2023-01-05T11:26:19;15.15;;;9.50;;
45198;SDS011;30941;46.422;18.772;2023-01-05T11:31:36;14.15;;;8.15;;
45198;SDS011;30941;46.422;18.772;2023-01-05T11:34:07;11.95;;;8.38;;
45198;SDS011;30941;46.422;18.772;2023-01-05T11:36:52;18.00;;;10.07;;
45198;SDS011;30941;46.422;18.772;2023-01-05T11:39:23;14.98;;;9.70;;
45198;SDS011;30941;46.422;18.772;2023-01-05T11:41:52;15.55;;;8.52;;
45198;SDS011;30941;46.422;18.772;2023-01-05T11:44:28;13.88;;;9.00;;
45198;SDS011;30941;46.422;18.772;2023-01-05T11:46:54;13.77;;;7.93;;
45198;SDS011;30941;46.422;18.772;2023-01-05T11:49:20;14.18;;;8.68;;
45198;SDS011;30941;46.422;18.772;2023-01-05T11:51:45;14.85;;;8.93;;
45198;SDS011;30941;46.422;18.772;2023-01-05T11:57:14;15.10;;;9.05;;
45198;SDS011;30941;46.422;18.772;2023-01-05T11:59:42;16.30;;;10.38;;
45198;SDS011;30941;46.422;18.772;2023-01-05T12:07:24;19.55;;;10.93;;
45198;SDS011;30941;46.422;18.772;2023-01-05T12:15:19;20.48;;;10.77;;
45198;SDS011;30941;46.422;18.772;2023-01-05T12:34:05;17.25;;;9.57;;
45198;SDS011;30941;46.422;18.772;2023-01-05T12:39:56;18.35;;;11.55;;
45198;SDS011;30941;46.422;18.772;2023-01-05T12:47:26;22.50;;;13.27;;
45198;SDS011;30941;46.422;18.772;2023-01-05T12:50:21;13.90;;;9.93;;
45198;SDS011;30941;46.422;18.772;2023-01-05T12:53:20;17.48;;;10.48;;
45198;SDS011;30941;46.422;18.772;2023-01-05T12:55:55;16.02;;;10.00;;
45198;SDS011;30941;46.422;18.772;2023-01-05T12:58:23;13.90;;;9.32;;
45198;SDS011;30941;46.422;18.772;2023-01-05T13:00:52;13.52;;;8.82;;
45198;SDS011;30941;46.422;18.772;2023-01-05T13:03:20;14.57;;;9.55;;
45198;SDS011;30941;46.422;18.772;2023-01-05T13:13:39;15.27;;;9.88;;
45198;SDS011;30941;46.422;18.772;2023-01-05T13:16:22;16.67;;;11.30;;
45198;SDS011;30941;46.422;18.772;2023-01-05T13:21:34;14.27;;;8.70;;
45198;SDS011;30941;46.422;18.772;2023-01-05T13:24:05;14.13;;;8.45;;
45198;SDS011;30941;46.422;18.772;2023-01-05T13:28:59;14.50;;;9.55;;
45198;SDS011;30941;46.422;18.772;2023-01-05T13:34:18;18.55;;;11.98;;
45198;SDS011;30941;46.422;18.772;2023-01-05T13:53:43;20.13;;;11.10;;
45198;SDS011;30941;46.422;18.772;2023-01-05T13:56:14;17.33;;;12.00;;
45198;SDS011;30941;46.422;18.772;2023-01-05T13:58:47;18.42;;;12.82;;
45198;SDS011;30941;46.422;18.772;2023-01-05T14:01:18;20.00;;;12.63;;
45198;SDS011;30941;46.422;18.772;2023-01-05T14:03:56;16.90;;;11.57;;
45198;SDS011;30941;46.422;18.772;2023-01-05T14:06:23;18.63;;;12.98;;
45198;SDS011;30941;46.422;18.772;2023-01-05T14:11:32;18.92;;;11.90;;
45198;SDS011;30941;46.422;18.772;2023-01-05T14:14:01;18.50;;;11.63;;
45198;SDS011;30941;46.422;18.772;2023-01-05T14:27:13;21.88;;;14.40;;
45198;SDS011;30941;46.422;18.772;2023-01-05T14:34:54;26.30;;;15.60;;
45198;SDS011;30941;46.422;18.772;2023-01-05T14:40:14;43.40;;;25.67;;
45198;SDS011;30941;46.422;18.772;2023-01-05T14:42:58;41.10;;;24.00;;
45198;SDS011;30941;46.422;18.772;2023-01-05T14:45:29;32.08;;;21.52;;
45198;SDS011;30941;46.422;18.772;2023-01-05T14:48:00;29.98;;;18.45;;
45198;SDS011;30941;46.422;18.772;2023-01-05T14:50:38;38.75;;;24.10;;
45198;SDS011;30941;46.422;18.772;2023-01-05T14:55:38;40.58;;;26.20;;
45198;SDS011;30941;46.422;18.772;2023-01-05T14:58:13;56.78;;;32.50;;
45198;SDS011;30941;46.422;18.772;2023-01-05T15:00:55;62.33;;;35.70;;
45198;SDS011;30941;46.422;18.772;2023-01-05T15:06:08;79.03;;;47.88;;
45198;SDS011;30941;46.422;18.772;2023-01-05T15:30:18;23.52;;;14.20;;
45198;SDS011;30941;46.422;18.772;2023-01-05T15:32:47;27.40;;;15.07;;
45198;SDS011;30941;46.422;18.772;2023-01-05T15:35:17;25.17;;;16.15;;
45198;SDS011;30941;46.422;18.772;2023-01-05T15:37:45;22.98;;;14.45;;
45198;SDS011;30941;46.422;18.772;2023-01-05T15:42:47;24.15;;;15.23;;
45198;SDS011;30941;46.422;18.772;2023-01-05T15:45:27;28.75;;;15.65;;
45198;SDS011;30941;46.422;18.772;2023-01-05T15:47:55;22.88;;;15.00;;
45198;SDS011;30941;46.422;18.772;2023-01-05T15:50:27;31.50;;;17.77;;
45198;SDS011;30941;46.422;18.772;2023-01-05T15:52:57;69.18;;;32.05;;
45198;SDS011;30941;46.422;18.772;2023-01-05T15:55:24;80.03;;;35.15;;
45198;SDS011;30941;46.422;18.772;2023-01-05T15:57:52;60.80;;;32.83;;
45198;SDS011;30941;46.422;18.772;2023-01-05T16:00:26;54.95;;;25.88;;
45198;SDS011;30941;46.422;18.772;2023-01-05T16:02:53;30.73;;;17.25;;
45198;SDS011;30941;46.422;18.772;2023-01-05T16:07:55;50.15;;;25.75;;
45198;SDS011;30941;46.422;18.772;2023-01-05T16:10:40;40.70;;;20.92;;
45198;SDS011;30941;46.422;18.772;2023-01-05T16:16:08;27.27;;;15.45;;
45198;SDS011;30941;46.422;18.772;2023-01-05T16:18:39;23.02;;;14.23;;
45198;SDS011;30941;46.422;18.772;2023-01-05T16:21:19;21.10;;;13.27;;
45198;SDS011;30941;46.422;18.772;2023-01-05T16:23:53;23.23;;;13.98;;
45198;SDS011;30941;46.422;18.772;2023-01-05T16:26:22;21.55;;;13.25;;
45198;SDS011;30941;46.422;18.772;2023-01-05T16:28:47;38.20;;;20.05;;
45198;SDS011;30941;46.422;18.772;2023-01-05T16:31:13;33.25;;;21.98;;
45198;SDS011;30941;46.422;18.772;2023-01-05T16:33:46;29.38;;;19.65;;
45198;SDS011;30941;46.422;18.772;2023-01-05T16:36:25;41.97;;;25.85;;
45198;SDS011;30941;46.422;18.772;2023-01-05T16:38:51;43.20;;;25.92;;
45198;SDS011;30941;46.422;18.772;2023-01-05T16:41:20;31.10;;;18.65;;
45198;SDS011;30941;46.422;18.772;2023-01-05T16:43:59;21.90;;;14.70;;
45198;SDS011;30941;46.422;18.772;2023-01-05T16:46:29;28.13;;;15.88;;
45198;SDS011;30941;46.422;18.772;2023-01-05T16:51:35;26.13;;;13.27;;
45198;SDS011;30941;46.422;18.772;2023-01-05T16:56:45;20.05;;;12.15;;
45198;SDS011;30941;46.422;18.772;2023-01-05T17:04:55;22.85;;;12.82;;
45198;SDS011;30941;46.422;18.772;2023-01-05T17:07:20;26.50;;;16.05;;
45198;SDS011;30941;46.422;18.772;2023-01-05T17:09:46;51.75;;;26.02;;
45198;SDS011;30941;46.422;18.772;2023-01-05T17:12:11;44.50;;;24.05;;
45198;SDS011;30941;46.422;18.772;2023-01-05T17:14:37;40.88;;;22.58;;
45198;SDS011;30941;46.422;18.772;2023-01-05T17:17:03;49.10;;;26.63;;
45198;SDS011;30941;46.422;18.772;2023-01-05T17:19:29;52.67;;;28.48;;
45198;SDS011;30941;46.422;18.772;2023-01-05T17:21:58;53.40;;;29.67;;
45198;SDS011;30941;46.422;18.772;2023-01-05T17:24:30;46.80;;;25.75;;
45198;SDS011;30941;46.422;18.772;2023-01-05T17:26:56;34.53;;;21.95;;
45198;SDS011;30941;46.422;18.772;2023-01-05T17:29:22;25.73;;;17.33;;
45198;SDS011;30941;46.422;18.772;2023-01-05T17:31:49;23.30;;;14.90;;
45198;SDS011;30941;46.422;18.772;2023-01-05T17:34:15;18.25;;;12.15;;
45198;SDS011;30941;46.422;18.772;2023-01-05T17:36:41;18.67;;;12.45;;